createdAt,value
2018-08-31T00:02:03.233Z,17.70
2018-08-31T00:04:42.839Z,17.60
2018-08-31T00:07:25.617Z,17.60
2018-08-31T00:10:12.755Z,17.60
2018-08-31T00:12:41.424Z,17.60
2018-08-31T00:15:09.250Z,17.70
2018-08-31T00:17:38.214Z,17.70
2018-08-31T00:22:33.382Z,17.70
2018-08-31T00:25:19.050Z,17.70
2018-08-31T00:27:58.112Z,17.70
2018-08-31T00:33:05.074Z,17.70
2018-08-31T00:42:34.102Z,17.60
2018-08-31T00:45:34.294Z,17.80
2018-08-31T00:48:02.417Z,17.90
2018-08-31T00:50:30.451Z,17.90
2018-08-31T00:52:58.417Z,18.00
2018-08-31T00:55:26.118Z,17.90
2018-08-31T00:57:53.847Z,17.80
2018-08-31T01:00:21.643Z,17.90
2018-08-31T01:02:49.317Z,17.90
2018-08-31T01:07:44.981Z,17.90
2018-08-31T01:10:12.626Z,17.90
2018-08-31T01:12:40.362Z,17.80
2018-08-31T01:15:08.704Z,17.70
2018-08-31T01:17:36.370Z,17.80
2018-08-31T01:20:04.127Z,17.70
2018-08-31T01:22:31.770Z,17.60
2018-08-31T01:24:59.432Z,17.60
2018-08-31T01:27:27.038Z,17.80
2018-08-31T01:29:54.775Z,17.70
2018-08-31T01:32:22.442Z,17.70
2018-08-31T01:34:50.136Z,17.70
2018-08-31T01:37:17.755Z,17.70
2018-08-31T01:39:45.582Z,17.60
2018-08-31T01:42:13.222Z,17.60
2018-08-31T01:44:40.870Z,17.60
2018-08-31T01:47:08.782Z,17.60
2018-08-31T01:49:36.524Z,17.60
2018-08-31T01:54:31.773Z,17.70
2018-08-31T01:56:59.423Z,17.60
2018-08-31T01:59:27.113Z,17.60
2018-08-31T02:01:54.768Z,17.60
2018-08-31T02:04:22.416Z,17.60
2018-08-31T02:06:50.019Z,17.60
2018-08-31T02:09:18.638Z,17.50
2018-08-31T02:11:46.838Z,17.50
2018-08-31T02:14:14.470Z,17.50
2018-08-31T02:16:42.112Z,17.50
2018-08-31T02:19:09.827Z,17.40
2018-08-31T02:21:37.445Z,17.40
2018-08-31T02:24:05.329Z,17.40
2018-08-31T02:26:32.952Z,17.40
2018-08-31T02:29:00.935Z,17.40
2018-08-31T02:31:28.655Z,17.30
2018-08-31T02:33:56.315Z,17.30
2018-08-31T02:36:24.110Z,17.30
2018-08-31T02:38:52.195Z,17.40
2018-08-31T02:41:19.843Z,17.30
2018-08-31T02:43:48.611Z,17.20
2018-08-31T02:46:17.079Z,17.20
2018-08-31T02:51:12.338Z,17.10
2018-08-31T02:53:40.196Z,17.10
2018-08-31T03:01:03.099Z,17.20
2018-08-31T03:03:30.727Z,17.20
2018-08-31T03:10:53.538Z,17.00
2018-08-31T03:13:21.161Z,17.00
2018-08-31T03:15:48.800Z,17.00
2018-08-31T03:18:16.461Z,17.00
2018-08-31T03:20:44.099Z,17.00
2018-08-31T03:23:11.755Z,17.00
2018-08-31T03:28:06.924Z,17.00
2018-08-31T03:30:34.583Z,16.90
2018-08-31T03:33:02.216Z,16.80
2018-08-31T03:35:29.867Z,16.70
2018-08-31T03:37:57.527Z,16.70
2018-08-31T03:40:25.224Z,16.70
2018-08-31T03:47:48.307Z,15.70
2018-08-31T03:50:15.967Z,16.90
2018-08-31T03:52:43.625Z,16.90
2018-08-31T03:55:11.396Z,16.80
2018-08-31T04:00:07.719Z,16.80
2018-08-31T04:02:35.393Z,16.80
2018-08-31T04:05:03.176Z,16.80
2018-08-31T04:07:30.789Z,16.80
2018-08-31T04:09:58.393Z,16.80
2018-08-31T04:12:26.011Z,16.90
2018-08-31T04:17:21.336Z,16.80
2018-08-31T04:19:48.956Z,16.60
2018-08-31T04:22:16.626Z,16.60
2018-08-31T04:24:44.238Z,16.40
2018-08-31T04:27:11.939Z,16.40
2018-08-31T04:29:39.583Z,16.20
2018-08-31T04:32:07.243Z,16.20
2018-08-31T04:37:02.483Z,16.10
2018-08-31T04:39:30.087Z,16.00
2018-08-31T04:41:57.712Z,16.00
2018-08-31T04:44:25.355Z,16.10
2018-08-31T04:49:20.574Z,16.00
2018-08-31T04:51:48.214Z,16.00
2018-08-31T04:54:15.834Z,15.90
2018-08-31T04:56:43.458Z,15.90
2018-08-31T04:59:11.084Z,15.90
2018-08-31T05:01:38.725Z,15.80
2018-08-31T05:04:07.276Z,15.80
2018-08-31T05:06:35.278Z,15.80
2018-08-31T05:09:03.047Z,15.80
2018-08-31T05:13:58.203Z,15.80
2018-08-31T05:16:25.823Z,15.60
2018-08-31T05:21:20.956Z,15.60
2018-08-31T05:26:16.190Z,15.70
2018-08-31T05:31:11.330Z,15.70
2018-08-31T05:33:39.033Z,15.80
2018-08-31T05:38:34.207Z,15.70
2018-08-31T05:43:29.401Z,15.80
2018-08-31T05:48:24.573Z,15.80
2018-08-31T05:50:52.222Z,15.90
2018-08-31T05:53:19.864Z,16.00
2018-08-31T05:55:47.502Z,16.00
2018-08-31T06:03:10.279Z,16.10
2018-08-31T06:05:37.874Z,16.00
2018-08-31T06:08:05.546Z,15.90
2018-08-31T06:15:28.303Z,15.90
2018-08-31T06:17:55.925Z,15.90
2018-08-31T06:20:23.575Z,15.80
2018-08-31T06:22:51.202Z,15.80
2018-08-31T06:25:18.820Z,15.80
2018-08-31T06:30:14.887Z,15.80
2018-08-31T06:32:42.591Z,15.80
2018-08-31T06:37:37.705Z,15.80
2018-08-31T06:40:05.462Z,15.80
2018-08-31T06:42:33.075Z,15.70
2018-08-31T06:47:28.261Z,15.60
2018-08-31T06:52:23.415Z,15.70
2018-08-31T06:54:51.139Z,15.80
2018-08-31T06:59:46.444Z,15.60
2018-08-31T07:04:41.642Z,15.60
2018-08-31T07:09:36.827Z,15.50
2018-08-31T07:14:32.071Z,15.50
2018-08-31T07:16:59.706Z,15.50
2018-08-31T07:19:27.431Z,15.60
2018-08-31T07:21:54.994Z,15.40
2018-08-31T07:26:50.313Z,15.60
2018-08-31T07:29:17.920Z,15.60
2018-08-31T07:36:40.769Z,15.50
2018-08-31T07:41:36.525Z,15.50
2018-08-31T07:44:04.179Z,15.50
2018-08-31T07:46:31.806Z,15.50
2018-08-31T07:51:26.989Z,15.50
2018-08-31T07:53:54.689Z,15.50
2018-08-31T08:01:17.310Z,15.50
2018-08-31T08:03:44.934Z,15.40
2018-08-31T08:06:12.595Z,15.30
2018-08-31T08:08:40.247Z,15.30
2018-08-31T08:11:07.900Z,15.10
2018-08-31T08:16:03.230Z,15.10
2018-08-31T08:20:58.458Z,15.00
2018-08-31T08:23:26.219Z,15.20
2018-08-31T08:28:21.441Z,15.00
2018-08-31T08:30:49.053Z,15.00
2018-08-31T08:33:16.662Z,15.00
2018-08-31T08:38:11.868Z,15.10
2018-08-31T08:40:39.506Z,15.10
2018-08-31T08:43:07.150Z,15.10
2018-08-31T08:55:24.968Z,15.30
2018-08-31T08:57:52.633Z,15.40
2018-08-31T09:00:20.282Z,15.40
2018-08-31T09:05:15.467Z,15.40
2018-08-31T09:07:43.079Z,15.50
2018-08-31T09:10:10.714Z,15.40
2018-08-31T09:12:38.332Z,15.40
2018-08-31T09:15:06.154Z,15.40
2018-08-31T09:17:33.746Z,15.50
2018-08-31T09:20:01.368Z,15.50
2018-08-31T09:24:56.559Z,15.60
2018-08-31T09:27:28.782Z,15.60
2018-08-31T09:29:56.431Z,15.60
2018-08-31T09:39:53.207Z,15.60
2018-08-31T09:42:20.839Z,15.60
2018-08-31T09:44:48.538Z,15.50
2018-08-31T09:47:16.142Z,15.60
2018-08-31T09:52:13.150Z,15.50
2018-08-31T09:54:40.759Z,15.50
2018-08-31T09:57:08.561Z,15.50
2018-08-31T09:59:36.209Z,15.40
2018-08-31T10:02:05.875Z,15.40
2018-08-31T10:04:33.507Z,15.40
2018-08-31T10:09:28.780Z,15.50
2018-08-31T10:11:56.506Z,15.50
2018-08-31T10:14:24.127Z,15.70
2018-08-31T10:21:46.915Z,15.70
2018-08-31T10:24:14.566Z,15.80
2018-08-31T10:26:42.178Z,15.80
2018-08-31T10:29:09.855Z,15.90
2018-08-31T10:34:05.142Z,15.70
2018-08-31T10:36:32.769Z,15.70
2018-08-31T10:39:00.459Z,15.70
2018-08-31T10:41:28.113Z,15.70
2018-08-31T10:43:55.820Z,19.60
2018-08-31T10:46:23.753Z,15.70
2018-08-31T10:48:51.691Z,15.60
2018-08-31T10:51:19.448Z,15.60
2018-08-31T10:53:47.091Z,15.60
2018-08-31T10:56:14.811Z,15.60
2018-08-31T10:58:42.539Z,15.60
2018-08-31T11:03:37.921Z,15.60
2018-08-31T11:06:05.584Z,15.60
2018-08-31T11:11:00.789Z,15.70
2018-08-31T11:13:28.435Z,15.80
2018-08-31T11:15:56.519Z,15.70
2018-08-31T11:18:24.564Z,15.90
2018-08-31T11:20:52.214Z,16.00
2018-08-31T11:25:47.518Z,16.00
2018-08-31T11:28:15.178Z,16.20
2018-08-31T11:30:43.135Z,16.10
2018-08-31T11:33:10.937Z,16.10
2018-08-31T11:35:38.588Z,16.10
2018-08-31T11:38:06.526Z,16.00
2018-08-31T11:50:24.475Z,16.20
2018-08-31T11:55:19.794Z,16.30
2018-08-31T12:02:42.750Z,16.40
2018-08-31T12:07:38.080Z,16.40
2018-08-31T12:10:06.512Z,16.40
2018-08-31T12:15:01.864Z,16.50
2018-08-31T12:17:35.762Z,16.50
2018-08-31T12:20:04.994Z,16.60
2018-08-31T12:22:32.720Z,16.60
2018-08-31T12:25:00.353Z,16.70
2018-08-31T12:27:28.015Z,16.70
2018-08-31T12:29:55.684Z,16.70
2018-08-31T12:32:23.343Z,16.60
2018-08-31T12:34:50.957Z,16.70
2018-08-31T12:37:18.940Z,16.50
2018-08-31T12:39:46.564Z,16.40
2018-08-31T12:42:14.200Z,16.40
2018-08-31T12:47:09.435Z,16.40
2018-08-31T12:54:32.546Z,16.80
2018-08-31T12:59:27.764Z,17.10
2018-08-31T13:01:55.561Z,16.90
2018-08-31T13:04:23.350Z,17.10
2018-08-31T13:06:51.224Z,17.00
2018-08-31T13:11:46.303Z,17.00
2018-08-31T13:14:13.918Z,17.00
2018-08-31T13:19:09.075Z,16.90
2018-08-31T13:26:31.781Z,16.60
2018-08-31T13:28:59.410Z,16.40
2018-08-31T13:33:54.552Z,16.40
2018-08-31T13:36:22.194Z,16.30
2018-08-31T13:38:49.844Z,16.30
2018-08-31T13:43:44.998Z,16.20
2018-08-31T13:48:40.178Z,16.40
2018-08-31T13:51:07.833Z,16.20
2018-08-31T14:00:58.050Z,17.30
2018-08-31T14:03:25.667Z,17.40
2018-08-31T14:05:53.299Z,17.60
2018-08-31T14:10:48.550Z,17.90
2018-08-31T14:13:16.172Z,18.10
2018-08-31T14:15:43.900Z,18.10
2018-08-31T14:20:39.155Z,18.20
2018-08-31T14:23:06.895Z,18.00
2018-08-31T14:25:34.506Z,17.90
2018-08-31T14:28:02.118Z,18.00
2018-08-31T14:30:29.711Z,17.80
2018-08-31T14:32:57.610Z,17.80
2018-08-31T14:35:25.243Z,17.80
2018-08-31T14:37:52.914Z,17.50
2018-08-31T14:40:20.571Z,17.40
2018-08-31T14:42:48.271Z,17.40
2018-08-31T14:45:15.962Z,17.30
2018-08-31T14:47:43.583Z,17.20
2018-08-31T14:50:11.248Z,17.00
2018-08-31T14:52:38.915Z,16.90
2018-08-31T14:55:06.546Z,16.90
2018-08-31T14:57:34.457Z,16.70
2018-08-31T15:00:02.197Z,16.70
2018-08-31T15:02:29.802Z,16.70
2018-08-31T15:04:57.414Z,16.60
2018-08-31T15:09:52.575Z,16.50
2018-08-31T15:12:20.178Z,16.50
2018-08-31T15:14:47.812Z,16.50
2018-08-31T15:17:15.456Z,16.40
2018-08-31T15:22:10.605Z,16.40
2018-08-31T15:24:38.298Z,16.50
2018-08-31T15:27:05.921Z,16.40
2018-08-31T15:29:33.611Z,16.50
2018-08-31T15:34:28.845Z,16.50
2018-08-31T15:36:56.550Z,16.50
2018-08-31T15:39:24.119Z,16.40
2018-08-31T15:44:19.509Z,16.40
2018-08-31T15:46:47.163Z,16.40
2018-08-31T15:51:42.358Z,16.40
2018-08-31T15:54:09.979Z,16.30
2018-08-31T15:56:37.590Z,16.40
2018-08-31T15:59:05.220Z,16.30
2018-08-31T16:01:32.952Z,16.30
2018-08-31T16:06:28.327Z,16.40
2018-08-31T16:08:56.510Z,16.60
2018-08-31T16:11:24.207Z,16.60
2018-08-31T16:13:51.846Z,16.50
2018-08-31T16:16:19.471Z,16.50
2018-08-31T16:21:14.725Z,16.40
2018-08-31T16:23:42.355Z,16.30
2018-08-31T16:28:37.507Z,16.30
2018-08-31T16:31:11.758Z,16.30
2018-08-31T16:36:07.422Z,16.40
2018-08-31T16:38:35.039Z,16.30
2018-08-31T16:43:30.177Z,16.30
2018-08-31T16:45:57.822Z,16.30
2018-08-31T16:48:25.426Z,16.30
2018-08-31T16:50:53.035Z,16.30
2018-08-31T16:53:20.646Z,18.20
2018-08-31T16:55:48.257Z,16.30
2018-08-31T16:58:15.859Z,16.30
2018-08-31T17:00:43.482Z,16.30
2018-08-31T17:05:38.627Z,16.30
2018-08-31T17:08:06.261Z,16.30
2018-08-31T17:10:33.871Z,16.30
2018-08-31T17:15:29.082Z,16.20
2018-08-31T17:17:56.743Z,16.30
2018-08-31T17:20:24.378Z,16.30
2018-08-31T17:22:52.115Z,16.30
2018-08-31T17:27:52.998Z,16.20
2018-08-31T17:30:21.745Z,16.20
2018-08-31T17:34:57.272Z,16.20
2018-08-31T17:37:31.362Z,16.20
2018-08-31T17:39:59.037Z,16.20
2018-08-31T17:42:28.506Z,16.10
2018-08-31T17:47:23.915Z,16.10
2018-08-31T17:49:51.649Z,16.10
2018-08-31T17:52:19.309Z,16.10
2018-08-31T17:54:47.003Z,16.00
2018-08-31T17:57:14.722Z,16.00
2018-08-31T18:02:10.130Z,16.00
2018-08-31T18:04:37.771Z,16.10
2018-08-31T18:07:05.826Z,16.00
2018-08-31T18:12:01.022Z,16.10
2018-08-31T18:14:28.666Z,16.10
2018-08-31T18:16:56.279Z,16.10
2018-08-31T18:19:23.923Z,16.30
2018-08-31T18:21:51.597Z,16.40
2018-08-31T18:26:46.770Z,16.50
2018-08-31T18:34:09.550Z,16.70
2018-08-31T18:36:37.213Z,16.70
2018-08-31T18:39:06.443Z,16.60
2018-08-31T18:41:34.090Z,16.70
2018-08-31T18:44:01.712Z,16.70
2018-08-31T18:46:29.518Z,16.60
2018-08-31T18:48:57.160Z,16.70
2018-08-31T18:51:24.783Z,16.80
2018-08-31T18:53:52.374Z,16.80
2018-08-31T18:56:19.972Z,16.80
2018-08-31T18:58:47.607Z,16.70
2018-08-31T19:01:15.223Z,16.90
2018-08-31T19:03:42.856Z,16.90
2018-08-31T19:06:10.715Z,16.90
2018-08-31T19:08:38.318Z,16.90
2018-08-31T19:11:05.964Z,16.80
2018-08-31T19:13:33.580Z,16.80
2018-08-31T19:16:01.179Z,16.90
2018-08-31T19:18:28.830Z,16.90
2018-08-31T19:20:56.459Z,16.90
2018-08-31T19:23:24.075Z,17.00
2018-08-31T19:25:51.650Z,16.90
2018-08-31T19:33:14.386Z,16.90
2018-08-31T19:38:09.551Z,16.80
2018-08-31T19:40:37.194Z,16.90
2018-08-31T19:43:04.938Z,16.80
2018-08-31T19:45:32.605Z,16.80
2018-08-31T19:48:00.286Z,16.80
2018-08-31T19:50:27.925Z,16.70
2018-08-31T19:52:55.774Z,16.60
2018-08-31T19:55:23.416Z,16.60
2018-08-31T19:57:51.029Z,16.50
2018-08-31T20:02:46.189Z,16.60
2018-08-31T20:05:13.820Z,16.50
2018-08-31T20:07:41.462Z,16.50
2018-08-31T20:10:09.370Z,16.50
2018-08-31T20:12:36.972Z,16.50
2018-08-31T20:15:04.999Z,16.50
2018-08-31T20:17:32.599Z,16.50
2018-08-31T20:20:00.275Z,16.50
2018-08-31T20:22:27.919Z,16.60
2018-08-31T20:24:55.598Z,16.50
2018-08-31T20:29:50.782Z,16.50
2018-08-31T20:32:18.569Z,16.50
2018-08-31T20:34:46.245Z,16.40
2018-08-31T20:37:13.991Z,16.40
2018-08-31T20:39:41.615Z,16.50
2018-08-31T20:42:09.326Z,16.50
2018-08-31T20:44:36.935Z,16.60
2018-08-31T20:47:04.846Z,16.60
2018-08-31T20:49:32.471Z,16.70
2018-08-31T20:52:00.198Z,16.70
2018-08-31T20:54:27.815Z,16.70
2018-08-31T20:56:55.434Z,16.60
2018-08-31T20:59:23.159Z,16.70
2018-08-31T21:01:50.777Z,16.70
2018-08-31T21:04:18.518Z,16.70
2018-08-31T21:09:13.675Z,16.40
2018-08-31T21:11:41.286Z,16.30
2018-08-31T21:14:08.909Z,16.20
2018-08-31T21:16:36.531Z,16.00
2018-08-31T21:19:04.185Z,15.90
2018-08-31T21:21:31.782Z,15.80
2018-08-31T21:24:00.510Z,15.80
2018-08-31T21:28:55.651Z,15.80
2018-08-31T21:31:23.277Z,15.70
2018-08-31T21:33:50.917Z,15.70
2018-08-31T21:41:13.678Z,15.70
2018-08-31T21:46:08.839Z,15.70
2018-08-31T21:48:36.517Z,15.70
2018-08-31T21:53:31.975Z,15.60
2018-08-31T21:55:59.606Z,15.70
2018-08-31T21:58:27.289Z,15.70
2018-08-31T22:04:27.143Z,15.70
2018-08-31T22:06:54.752Z,15.60
2018-08-31T22:09:22.405Z,15.60
2018-08-31T22:14:17.612Z,15.60
2018-08-31T22:16:45.247Z,15.60
2018-08-31T22:19:12.851Z,15.50
2018-08-31T22:21:40.510Z,15.50
2018-08-31T22:24:08.133Z,15.50
2018-08-31T22:26:35.992Z,15.40
2018-08-31T22:31:31.543Z,15.30
2018-08-31T22:33:59.151Z,15.30
2018-08-31T22:36:27.877Z,15.20
2018-08-31T22:38:55.503Z,15.20
2018-08-31T22:43:51.890Z,15.20
2018-08-31T22:46:20.969Z,15.30
2018-08-31T22:51:17.710Z,15.30
2018-08-31T22:53:47.186Z,15.40
2018-08-31T22:58:43.635Z,15.40
2018-08-31T23:01:11.349Z,15.50
2018-08-31T23:06:06.589Z,15.70
2018-08-31T23:08:34.393Z,15.70
2018-08-31T23:11:02.818Z,15.70
2018-08-31T23:13:30.454Z,15.70
2018-08-31T23:15:58.167Z,15.80
2018-08-31T23:18:25.913Z,15.70
2018-08-31T23:20:53.558Z,15.70
2018-08-31T23:23:26.905Z,15.70
2018-08-31T23:25:54.662Z,15.70
2018-08-31T23:28:22.370Z,15.70
2018-08-31T23:30:50.067Z,15.70
2018-08-31T23:33:17.765Z,15.70
2018-08-31T23:35:45.496Z,15.80
2018-08-31T23:38:13.234Z,15.80
2018-08-31T23:40:40.918Z,15.80
2018-08-31T23:43:08.613Z,15.90
2018-08-31T23:45:36.240Z,15.80
2018-08-31T23:48:03.892Z,15.80
2018-08-31T23:50:31.572Z,15.70
2018-08-31T23:52:59.300Z,15.70
2018-08-31T23:55:27.161Z,15.70
2018-08-31T23:57:54.763Z,15.70
